createdAt,value
2023-01-29T00:04:24.971Z,99237.81
2023-01-29T00:09:32.766Z,99243.05
2023-01-29T00:14:40.302Z,99238.45
2023-01-29T00:19:47.764Z,99240.93
2023-01-29T00:24:54.881Z,99249.25
2023-01-29T00:30:13.240Z,99249.86
2023-01-29T00:35:20.693Z,99253.91
2023-01-29T00:40:28.311Z,99258.52
2023-01-29T00:45:37.128Z,99257.42
2023-01-29T00:50:44.304Z,99260.66
2023-01-29T00:55:51.422Z,99259.90
2023-01-29T01:00:58.924Z,99269.52
2023-01-29T01:06:10.004Z,99276.59
2023-01-29T01:11:17.062Z,99278.11
2023-01-29T01:16:27.453Z,99270.39
2023-01-29T01:21:34.912Z,99268.86
2023-01-29T01:26:42.143Z,99262.77
2023-01-29T01:31:49.293Z,99259.64
2023-01-29T01:36:56.832Z,99251.59
2023-01-29T01:42:04.025Z,99256.86
2023-01-29T01:47:11.485Z,99250.30
2023-01-29T01:52:19.511Z,99246.73
2023-01-29T01:57:27.512Z,99244.11
2023-01-29T02:02:52.089Z,99231.28
2023-01-29T02:08:17.508Z,99222.21
2023-01-29T02:13:25.133Z,99233.50
2023-01-29T02:18:38.441Z,99237.72
2023-01-29T02:24:01.017Z,99224.44
2023-01-29T02:29:25.618Z,99223.27
2023-01-29T02:34:54.832Z,99221.44
2023-01-29T02:40:10.636Z,99218.58
2023-01-29T02:45:20.193Z,99229.38
2023-01-29T02:50:31.481Z,99233.40
2023-01-29T02:55:43.230Z,99241.25
2023-01-29T03:00:51.118Z,99243.20
2023-01-29T03:06:00.344Z,99245.00
2023-01-29T03:11:08.675Z,99234.16
2023-01-29T03:16:20.849Z,99242.86
2023-01-29T03:21:48.891Z,99254.16
2023-01-29T03:27:13.392Z,99260.66
2023-01-29T03:32:22.050Z,99254.88
2023-01-29T03:37:33.393Z,99252.08
2023-01-29T03:42:46.232Z,99249.41
2023-01-29T03:47:56.189Z,99251.77
2023-01-29T03:53:07.314Z,99242.67
2023-01-29T03:58:22.594Z,99238.77
2023-01-29T04:03:36.369Z,99227.96
2023-01-29T04:08:48.781Z,99227.48
2023-01-29T04:13:56.003Z,99232.79
2023-01-29T04:19:03.270Z,99233.83
2023-01-29T04:24:13.077Z,99222.91
2023-01-29T04:29:30.163Z,99214.73
2023-01-29T04:34:44.161Z,99198.44
2023-01-29T04:39:54.434Z,99184.54
2023-01-29T04:45:07.130Z,99179.31
2023-01-29T04:50:18.616Z,99169.00
2023-01-29T04:55:31.273Z,99155.77
2023-01-29T05:00:41.449Z,99154.44
2023-01-29T05:05:49.961Z,99152.56
2023-01-29T05:10:58.977Z,99160.28
2023-01-29T05:16:08.101Z,99167.16
2023-01-29T05:21:15.282Z,99168.52
2023-01-29T05:26:40.389Z,99178.02
2023-01-29T05:31:47.785Z,99185.05
2023-01-29T05:36:55.229Z,99182.40
2023-01-29T05:42:02.301Z,99172.73
2023-01-29T05:47:09.843Z,99171.46
2023-01-29T05:52:16.902Z,99180.70
2023-01-29T05:57:24.124Z,99181.46
2023-01-29T06:02:33.083Z,99177.73
2023-01-29T06:07:42.285Z,99181.50
2023-01-29T06:12:51.273Z,99189.06
2023-01-29T06:17:58.895Z,99184.97
2023-01-29T06:23:05.926Z,99185.62
2023-01-29T06:28:13.121Z,99195.16
2023-01-29T06:33:20.223Z,99195.70
2023-01-29T06:38:27.796Z,99197.90
2023-01-29T06:43:35.248Z,99183.67
2023-01-29T06:48:42.432Z,99183.86
2023-01-29T06:53:49.482Z,99184.98
2023-01-29T06:58:56.602Z,99185.05
2023-01-29T07:04:04.091Z,99192.93
2023-01-29T07:09:13.381Z,99195.16
2023-01-29T07:14:20.519Z,99198.16
2023-01-29T07:19:27.581Z,99199.39
2023-01-29T07:24:35.110Z,99210.13
2023-01-29T07:29:42.548Z,99207.46
2023-01-29T07:34:49.971Z,99208.19
2023-01-29T07:39:57.461Z,99211.66
2023-01-29T07:45:04.772Z,99217.58
2023-01-29T07:50:13.181Z,99211.60
2023-01-29T07:55:21.064Z,99222.34
2023-01-29T08:00:28.963Z,99234.59
2023-01-29T08:05:36.450Z,99245.84
2023-01-29T08:10:43.977Z,99250.11
2023-01-29T08:15:51.223Z,99253.17
2023-01-29T08:21:02.834Z,99254.47
2023-01-29T08:26:10.314Z,99258.48
2023-01-29T08:31:18.547Z,99255.77
2023-01-29T08:36:26.254Z,99260.21
2023-01-29T08:41:33.982Z,99266.45
2023-01-29T08:46:41.806Z,99270.23
2023-01-29T08:51:49.041Z,99268.45
2023-01-29T08:56:57.117Z,99265.33
2023-01-29T09:02:05.158Z,99264.23
2023-01-29T09:07:12.502Z,99245.25
2023-01-29T09:12:20.345Z,99228.61
2023-01-29T09:17:27.633Z,99212.36
2023-01-29T09:22:35.141Z,99214.39
2023-01-29T09:27:42.465Z,99221.77
2023-01-29T09:32:54.388Z,99227.20
2023-01-29T09:38:02.699Z,99233.46
2023-01-29T09:43:14.925Z,99233.37
2023-01-29T09:48:24.292Z,99230.05
2023-01-29T09:53:34.870Z,99226.48
2023-01-29T09:58:42.930Z,99222.98
2023-01-29T10:04:05.534Z,99211.62
2023-01-29T10:09:26.064Z,99189.78
2023-01-29T10:14:38.451Z,99181.55
2023-01-29T10:19:59.029Z,99181.16
2023-01-29T10:25:07.551Z,99159.91
2023-01-29T10:30:23.221Z,99152.02
2023-01-29T10:35:33.055Z,99141.50
2023-01-29T10:40:45.221Z,99129.67
2023-01-29T10:45:58.650Z,99116.23
2023-01-29T10:51:15.000Z,99103.05
2023-01-29T10:56:32.035Z,99090.85
2023-01-29T11:01:39.666Z,99084.37
2023-01-29T11:06:47.451Z,99075.91
2023-01-29T11:11:56.621Z,99068.79
2023-01-29T11:17:04.350Z,99057.38
2023-01-29T11:22:15.626Z,99040.92
2023-01-29T11:27:26.981Z,99031.23
2023-01-29T11:32:36.620Z,99034.76
2023-01-29T11:37:44.672Z,99029.77
2023-01-29T11:42:53.421Z,99029.05
2023-01-29T11:48:01.635Z,99036.60
2023-01-29T11:53:09.182Z,99035.77
2023-01-29T11:58:19.054Z,99034.66
2023-01-29T12:03:32.459Z,99029.23
2023-01-29T12:08:41.181Z,99022.21
2023-01-29T12:13:56.159Z,99012.15
2023-01-29T12:19:08.301Z,99014.65
2023-01-29T12:24:20.991Z,99006.54
2023-01-29T12:29:33.696Z,98997.29
2023-01-29T12:34:47.262Z,98997.23
2023-01-29T12:39:54.622Z,98989.64
2023-01-29T12:45:03.761Z,98986.80
2023-01-29T12:50:17.021Z,98982.70
2023-01-29T12:55:27.003Z,98976.38
2023-01-29T13:00:35.827Z,98973.04
2023-01-29T13:05:47.552Z,98970.84
2023-01-29T13:10:55.791Z,98967.45
2023-01-29T13:16:05.605Z,98963.04
2023-01-29T13:21:17.083Z,98952.62
2023-01-29T13:26:26.892Z,98952.00
2023-01-29T13:31:35.521Z,98949.64
2023-01-29T13:36:45.496Z,98951.54
2023-01-29T13:41:53.712Z,98938.96
2023-01-29T13:47:02.781Z,98926.69
2023-01-29T13:52:28.605Z,98920.91
2023-01-29T13:57:49.420Z,98910.75
2023-01-29T14:03:12.150Z,98911.23
2023-01-29T14:08:32.743Z,98917.80
2023-01-29T14:13:40.133Z,98915.90
2023-01-29T14:18:49.761Z,98914.20
2023-01-29T14:23:59.313Z,98908.90
2023-01-29T14:29:09.384Z,98904.02
2023-01-29T14:34:22.986Z,98906.36
2023-01-29T14:39:35.863Z,98913.45
2023-01-29T14:45:00.633Z,98914.17
2023-01-29T14:50:21.231Z,98912.87
2023-01-29T14:55:32.033Z,98908.61
2023-01-29T15:00:40.642Z,98911.09
2023-01-29T15:05:50.032Z,98910.42
2023-01-29T15:11:11.912Z,98906.30
2023-01-29T15:16:22.581Z,98909.50
2023-01-29T15:21:29.953Z,98902.83
2023-01-29T15:26:38.080Z,98902.29
2023-01-29T15:31:47.718Z,98901.38
2023-01-29T15:36:55.584Z,98899.49
2023-01-29T15:42:14.361Z,98895.91
2023-01-29T15:47:22.794Z,98891.17
2023-01-29T15:52:33.798Z,98878.33
2023-01-29T15:57:44.294Z,98877.19
2023-01-29T16:02:51.756Z,98866.16
2023-01-29T16:07:59.482Z,98868.86
2023-01-29T16:13:06.601Z,98868.36
2023-01-29T16:18:23.902Z,98862.39
2023-01-29T16:23:33.773Z,98857.83
2023-01-29T16:28:43.605Z,98852.63
2023-01-29T16:33:50.792Z,98849.54
2023-01-29T16:39:00.361Z,98856.29
2023-01-29T16:44:26.324Z,98859.27
2023-01-29T16:49:49.646Z,98857.01
2023-01-29T16:55:00.170Z,98859.55
2023-01-29T17:00:09.021Z,98857.96
2023-01-29T17:05:22.263Z,98856.23
2023-01-29T17:10:30.445Z,98858.00
2023-01-29T17:15:45.440Z,98853.04
2023-01-29T17:20:53.366Z,98846.77
2023-01-29T17:26:01.381Z,98836.89
2023-01-29T17:31:08.946Z,98835.67
2023-01-29T17:36:17.100Z,98832.66
2023-01-29T17:41:26.655Z,98827.69
2023-01-29T17:46:33.996Z,98820.95
2023-01-29T17:51:41.202Z,98817.58
2023-01-29T17:56:48.381Z,98811.29
2023-01-29T18:01:55.612Z,98805.80
2023-01-29T18:07:03.017Z,98814.27
2023-01-29T18:12:12.972Z,98817.25
2023-01-29T18:17:23.047Z,98805.85
2023-01-29T18:22:30.266Z,98806.52
2023-01-29T18:27:37.171Z,98800.75
2023-01-29T18:32:44.641Z,98801.61
2023-01-29T18:37:52.860Z,98797.85
2023-01-29T18:43:01.260Z,98793.30
2023-01-29T18:48:08.909Z,98794.73
2023-01-29T18:53:16.087Z,98787.31
2023-01-29T18:58:26.559Z,98785.71
2023-01-29T19:03:42.252Z,98778.36
2023-01-29T19:08:49.477Z,98777.05
2023-01-29T19:13:56.632Z,98773.64
2023-01-29T19:19:03.939Z,98770.80
2023-01-29T19:24:12.464Z,98767.69
2023-01-29T19:29:20.520Z,98763.91
2023-01-29T19:34:27.923Z,98767.29
2023-01-29T19:39:34.977Z,98763.33
2023-01-29T19:44:42.053Z,98760.93
2023-01-29T19:49:49.046Z,98757.71
2023-01-29T19:54:55.765Z,98751.86
2023-01-29T20:00:03.103Z,98750.14
2023-01-29T20:05:12.468Z,98745.20
2023-01-29T20:10:19.973Z,98746.37
2023-01-29T20:15:27.794Z,98745.58
2023-01-29T20:20:35.129Z,98742.32
2023-01-29T20:25:42.773Z,98741.95
2023-01-29T20:30:50.126Z,98742.18
2023-01-29T20:35:57.546Z,98739.86
2023-01-29T20:41:08.164Z,98738.79
2023-01-29T20:46:15.393Z,98737.64
2023-01-29T20:51:22.434Z,98727.23
2023-01-29T20:56:36.501Z,98722.48
2023-01-29T21:01:46.778Z,98720.54
2023-01-29T21:06:54.104Z,98706.70
2023-01-29T21:12:01.398Z,98700.64
2023-01-29T21:17:08.530Z,98689.95
2023-01-29T21:22:15.682Z,98679.27
2023-01-29T21:27:22.793Z,98676.07
2023-01-29T21:32:30.111Z,98662.60
2023-01-29T21:37:38.922Z,98664.60
2023-01-29T21:43:03.390Z,98662.61
2023-01-29T21:48:11.370Z,98648.69
2023-01-29T21:53:18.401Z,98646.65
2023-01-29T21:58:25.402Z,98635.98
2023-01-29T22:03:32.873Z,98631.08
2023-01-29T22:08:40.031Z,98628.48
2023-01-29T22:13:47.553Z,98624.48
2023-01-29T22:18:54.801Z,98610.34
2023-01-29T22:24:02.039Z,98599.63
2023-01-29T22:29:10.009Z,98587.55
2023-01-29T22:34:17.134Z,98575.49
2023-01-29T22:39:24.273Z,98572.79
2023-01-29T22:44:31.563Z,98568.21
2023-01-29T22:49:38.653Z,98558.60
2023-01-29T22:54:46.611Z,98550.96
2023-01-29T22:59:54.100Z,98538.80
2023-01-29T23:05:01.342Z,98529.55
2023-01-29T23:10:09.482Z,98519.46
2023-01-29T23:15:16.882Z,98518.16
2023-01-29T23:20:24.525Z,98511.00
2023-01-29T23:25:45.642Z,98500.93
2023-01-29T23:30:53.269Z,98485.90
2023-01-29T23:36:00.961Z,98473.28
2023-01-29T23:41:08.312Z,98461.20
2023-01-29T23:46:15.714Z,98449.10
2023-01-29T23:51:22.801Z,98436.73
2023-01-29T23:56:30.259Z,98425.52
